sensor_id;sensor_type;location;lat;lon;timestamp;pressure;altitude;pressure_sealevel;temperature;humidity
30618;BME280;17384;51.214;9.202;2023-02-13T00:01:07;100840.47;;;4.95;90.01
30618;BME280;17384;51.214;9.202;2023-02-13T00:03:33;100839.44;;;4.86;90.15
30618;BME280;17384;51.214;9.202;2023-02-13T00:05:58;100831.88;;;4.80;90.46
30618;BME280;17384;51.214;9.202;2023-02-13T00:08:24;100825.28;;;4.73;90.79
30618;BME280;17384;51.214;9.202;2023-02-13T00:10:49;100836.78;;;4.75;90.73
30618;BME280;17384;51.214;9.202;2023-02-13T00:13:15;100825.53;;;4.70;91.19
30618;BME280;17384;51.214;9.202;2023-02-13T00:15:40;100821.97;;;4.81;90.94
30618;BME280;17384;51.214;9.202;2023-02-13T00:18:06;100826.63;;;4.79;90.76
30618;BME280;17384;51.214;9.202;2023-02-13T00:20:31;100821.75;;;4.72;91.13
30618;BME280;17384;51.214;9.202;2023-02-13T00:22:58;100819.19;;;4.71;91.34
30618;BME280;17384;51.214;9.202;2023-02-13T00:25:23;100826.88;;;4.75;91.36
30618;BME280;17384;51.214;9.202;2023-02-13T00:27:50;100821.84;;;4.82;91.25
30618;BME280;17384;51.214;9.202;2023-02-13T00:30:15;100827.63;;;4.98;90.56
30618;BME280;17384;51.214;9.202;2023-02-13T00:32:41;100818.69;;;4.77;90.98
30618;BME280;17384;51.214;9.202;2023-02-13T00:35:07;100821.50;;;4.96;90.63
30618;BME280;17384;51.214;9.202;2023-02-13T00:37:33;100816.81;;;5.09;90.24
30618;BME280;17384;51.214;9.202;2023-02-13T00:39:58;100815.41;;;4.94;90.14
30618;BME280;17384;51.214;9.202;2023-02-13T00:42:24;100823.28;;;4.86;90.68
30618;BME280;17384;51.214;9.202;2023-02-13T00:44:51;100829.31;;;4.79;91.13
30618;BME280;17384;51.214;9.202;2023-02-13T00:47:17;100823.75;;;4.91;91.15
30618;BME280;17384;51.214;9.202;2023-02-13T00:49:43;100825.47;;;4.92;90.42
30618;BME280;17384;51.214;9.202;2023-02-13T00:52:08;100829.41;;;4.88;90.14
30618;BME280;17384;51.214;9.202;2023-02-13T00:54:34;100812.84;;;4.72;90.89
30618;BME280;17384;51.214;9.202;2023-02-13T00:56:59;100824.38;;;4.63;91.55
30618;BME280;17384;51.214;9.202;2023-02-13T00:59:24;100827.19;;;4.61;91.96
30618;BME280;17384;51.214;9.202;2023-02-13T01:01:50;100817.34;;;4.71;91.66
30618;BME280;17384;51.214;9.202;2023-02-13T01:04:15;100823.84;;;4.69;91.53
30618;BME280;17384;51.214;9.202;2023-02-13T01:06:41;100817.84;;;4.65;91.75
30618;BME280;17384;51.214;9.202;2023-02-13T01:09:07;100825.78;;;4.67;91.88
30618;BME280;17384;51.214;9.202;2023-02-13T01:11:32;100823.22;;;4.65;91.83
30618;BME280;17384;51.214;9.202;2023-02-13T01:13:57;100819.84;;;4.63;91.89
30618;BME280;17384;51.214;9.202;2023-02-13T01:16:23;100835.03;;;4.53;92.14
30618;BME280;17384;51.214;9.202;2023-02-13T01:18:48;100827.09;;;4.52;92.14
30618;BME280;17384;51.214;9.202;2023-02-13T01:21:17;100830.41;;;4.44;92.33
30618;BME280;17384;51.214;9.202;2023-02-13T01:23:43;100835.03;;;4.42;92.61
30618;BME280;17384;51.214;9.202;2023-02-13T01:26:14;100818.78;;;4.43;93.00
30618;BME280;17384;51.214;9.202;2023-02-13T01:28:40;100826.13;;;4.41;92.64
30618;BME280;17384;51.214;9.202;2023-02-13T01:31:06;100817.34;;;4.39;92.50
30618;BME280;17384;51.214;9.202;2023-02-13T01:33:31;100822.34;;;4.44;92.96
30618;BME280;17384;51.214;9.202;2023-02-13T01:35:57;100826.91;;;4.32;92.71
30618;BME280;17384;51.214;9.202;2023-02-13T01:38:22;100820.44;;;4.24;93.03
30618;BME280;17384;51.214;9.202;2023-02-13T01:40:52;100824.47;;;4.18;93.20
30618;BME280;17384;51.214;9.202;2023-02-13T01:43:19;100826.31;;;4.18;93.31
30618;BME280;17384;51.214;9.202;2023-02-13T01:45:49;100818.88;;;4.21;92.58
30618;BME280;17384;51.214;9.202;2023-02-13T01:48:18;100810.13;;;4.08;93.15
30618;BME280;17384;51.214;9.202;2023-02-13T01:50:58;100818.75;;;4.12;92.97
30618;BME280;17384;51.214;9.202;2023-02-13T01:56:02;100807.44;;;4.08;93.05
30618;BME280;17384;51.214;9.202;2023-02-13T01:58:33;100812.03;;;4.17;91.99
30618;BME280;17384;51.214;9.202;2023-02-13T02:01:00;100806.03;;;4.14;91.68
30618;BME280;17384;51.214;9.202;2023-02-13T02:03:37;100808.84;;;4.12;91.37
30618;BME280;17384;51.214;9.202;2023-02-13T02:06:06;100822.03;;;4.15;91.46
30618;BME280;17384;51.214;9.202;2023-02-13T02:08:33;100808.84;;;4.12;91.36
30618;BME280;17384;51.214;9.202;2023-02-13T02:11:05;100815.72;;;3.94;91.13
30618;BME280;17384;51.214;9.202;2023-02-13T02:13:33;100802.31;;;3.94;91.00
30618;BME280;17384;51.214;9.202;2023-02-13T02:15:59;100807.66;;;4.05;90.59
30618;BME280;17384;51.214;9.202;2023-02-13T02:18:25;100803.28;;;4.04;90.18
30618;BME280;17384;51.214;9.202;2023-02-13T02:23:33;100800.22;;;3.97;91.02
30618;BME280;17384;51.214;9.202;2023-02-13T02:41:58;100808.31;;;3.75;92.04
30618;BME280;17384;51.214;9.202;2023-02-13T02:52:54;100802.69;;;3.78;92.27
30618;BME280;17384;51.214;9.202;2023-02-13T02:58:23;100804.53;;;3.66;92.16
30618;BME280;17384;51.214;9.202;2023-02-13T03:01:13;100796.22;;;3.69;92.53
30618;BME280;17384;51.214;9.202;2023-02-13T03:03:59;100790.63;;;3.72;92.08
30618;BME280;17384;51.214;9.202;2023-02-13T03:06:53;100804.00;;;3.84;91.92
30618;BME280;17384;51.214;9.202;2023-02-13T03:09:41;100798.41;;;3.87;91.11
30618;BME280;17384;51.214;9.202;2023-02-13T03:12:34;100801.59;;;3.81;90.95
30618;BME280;17384;51.214;9.202;2023-02-13T03:15:20;100790.38;;;3.76;91.11
30618;BME280;17384;51.214;9.202;2023-02-13T03:17:46;100799.16;;;3.78;91.26
30618;BME280;17384;51.214;9.202;2023-02-13T03:23:34;100777.19;;;3.72;91.52
30618;BME280;17384;51.214;9.202;2023-02-13T03:31:53;100789.03;;;3.59;92.39
30618;BME280;17384;51.214;9.202;2023-02-13T03:34:32;100781.59;;;3.73;91.99
30618;BME280;17384;51.214;9.202;2023-02-13T03:37:22;100782.31;;;3.64;91.84
30618;BME280;17384;51.214;9.202;2023-02-13T03:42:55;100795.25;;;3.70;91.55
30618;BME280;17384;51.214;9.202;2023-02-13T03:45:31;100787.19;;;3.59;91.89
30618;BME280;17384;51.214;9.202;2023-02-13T03:48:20;100801.59;;;3.47;92.17
30618;BME280;17384;51.214;9.202;2023-02-13T03:51:07;100793.53;;;3.47;92.03
30618;BME280;17384;51.214;9.202;2023-02-13T03:53:37;100801.47;;;3.60;90.77
30618;BME280;17384;51.214;9.202;2023-02-13T03:56:05;100791.81;;;3.57;90.81
30618;BME280;17384;51.214;9.202;2023-02-13T03:58:52;100801.59;;;3.47;91.34
30618;BME280;17384;51.214;9.202;2023-02-13T04:01:39;100805.22;;;3.35;91.63
30618;BME280;17384;51.214;9.202;2023-02-13T04:07:11;100812.66;;;3.31;92.12
30618;BME280;17384;51.214;9.202;2023-02-13T04:09:54;100806.22;;;3.34;92.15
30618;BME280;17384;51.214;9.202;2023-02-13T04:15:14;100807.41;;;3.30;91.88
30618;BME280;17384;51.214;9.202;2023-02-13T04:18:08;100809.38;;;3.28;92.09
30618;BME280;17384;51.214;9.202;2023-02-13T04:20:35;100812.44;;;3.34;91.47
30618;BME280;17384;51.214;9.202;2023-02-13T04:23:05;100811.44;;;3.35;91.22
30618;BME280;17384;51.214;9.202;2023-02-13T04:25:32;100810.63;;;3.46;90.58
30618;BME280;17384;51.214;9.202;2023-02-13T04:27:58;100809.16;;;3.53;90.46
30618;BME280;17384;51.214;9.202;2023-02-13T04:30:23;100810.00;;;3.43;90.49
30618;BME280;17384;51.214;9.202;2023-02-13T04:32:49;100811.72;;;3.44;90.70
30618;BME280;17384;51.214;9.202;2023-02-13T04:35:15;100804.03;;;3.61;89.90
30618;BME280;17384;51.214;9.202;2023-02-13T04:37:42;100813.78;;;3.73;89.61
30618;BME280;17384;51.214;9.202;2023-02-13T04:40:08;100802.34;;;3.83;89.22
30618;BME280;17384;51.214;9.202;2023-02-13T04:42:34;100796.00;;;3.72;89.74
30618;BME280;17384;51.214;9.202;2023-02-13T04:44:59;100801.47;;;3.71;89.21
30618;BME280;17384;51.214;9.202;2023-02-13T04:47:25;100787.69;;;3.76;89.80
30618;BME280;17384;51.214;9.202;2023-02-13T04:49:50;100801.97;;;3.65;89.76
30618;BME280;17384;51.214;9.202;2023-02-13T04:52:16;100802.31;;;3.60;90.14
30618;BME280;17384;51.214;9.202;2023-02-13T04:54:42;100784.50;;;3.59;90.39
30618;BME280;17384;51.214;9.202;2023-02-13T04:57:07;100782.56;;;3.72;90.26
30618;BME280;17384;51.214;9.202;2023-02-13T04:59:33;100800.72;;;3.91;89.32
30618;BME280;17384;51.214;9.202;2023-02-13T05:01:58;100792.53;;;3.93;89.28
30618;BME280;17384;51.214;9.202;2023-02-13T05:04:24;100786.44;;;4.02;88.93
30618;BME280;17384;51.214;9.202;2023-02-13T05:06:50;100783.00;;;4.00;89.17
30618;BME280;17384;51.214;9.202;2023-02-13T05:09:16;100786.44;;;4.02;89.12
30618;BME280;17384;51.214;9.202;2023-02-13T05:11:41;100784.03;;;3.77;89.57
30618;BME280;17384;51.214;9.202;2023-02-13T05:14:09;100773.78;;;3.70;90.30
30618;BME280;17384;51.214;9.202;2023-02-13T05:16:35;100781.84;;;3.82;90.28
30618;BME280;17384;51.214;9.202;2023-02-13T05:19:01;100786.47;;;3.80;90.51
30618;BME280;17384;51.214;9.202;2023-02-13T05:21:26;100786.97;;;3.73;90.60
30618;BME280;17384;51.214;9.202;2023-02-13T05:24:10;100784.41;;;3.72;90.58
30618;BME280;17384;51.214;9.202;2023-02-13T05:26:35;100790.09;;;3.90;90.04
30618;BME280;17384;51.214;9.202;2023-02-13T05:29:01;100796.94;;;3.94;90.00
30618;BME280;17384;51.214;9.202;2023-02-13T05:31:48;100796.13;;;3.82;89.89
30618;BME280;17384;51.214;9.202;2023-02-13T05:34:14;100788.16;;;3.92;90.30
30618;BME280;17384;51.214;9.202;2023-02-13T05:36:40;100792.66;;;3.91;89.98
30618;BME280;17384;51.214;9.202;2023-02-13T05:39:05;100787.66;;;3.98;90.15
30618;BME280;17384;51.214;9.202;2023-02-13T05:41:31;100784.25;;;3.85;90.14
30618;BME280;17384;51.214;9.202;2023-02-13T05:43:57;100772.78;;;3.94;89.86
30618;BME280;17384;51.214;9.202;2023-02-13T05:46:23;100778.38;;;3.91;90.01
30618;BME280;17384;51.214;9.202;2023-02-13T05:48:48;100773.91;;;3.80;90.32
30618;BME280;17384;51.214;9.202;2023-02-13T05:51:14;100778.78;;;3.75;90.67
30618;BME280;17384;51.214;9.202;2023-02-13T05:53:39;100779.41;;;3.79;90.79
30618;BME280;17384;51.214;9.202;2023-02-13T05:56:05;100780.09;;;3.92;90.46
30618;BME280;17384;51.214;9.202;2023-02-13T05:58:31;100777.03;;;3.96;90.28
30618;BME280;17384;51.214;9.202;2023-02-13T06:00:58;100771.53;;;3.98;90.08
30618;BME280;17384;51.214;9.202;2023-02-13T06:03:24;100777.69;;;3.78;90.12
30618;BME280;17384;51.214;9.202;2023-02-13T06:05:51;100777.81;;;3.76;90.83
30618;BME280;17384;51.214;9.202;2023-02-13T06:08:16;100780.22;;;3.90;90.64
30618;BME280;17384;51.214;9.202;2023-02-13T06:10:42;100780.34;;;4.00;90.28
30618;BME280;17384;51.214;9.202;2023-02-13T06:13:07;100781.56;;;3.85;90.55
30618;BME280;17384;51.214;9.202;2023-02-13T06:15:33;100775.50;;;3.83;90.16
30618;BME280;17384;51.214;9.202;2023-02-13T06:17:58;100779.84;;;3.95;90.54
30618;BME280;17384;51.214;9.202;2023-02-13T06:20:24;100784.47;;;4.04;89.81
30618;BME280;17384;51.214;9.202;2023-02-13T06:22:50;100778.13;;;3.94;90.05
30618;BME280;17384;51.214;9.202;2023-02-13T06:25:16;100776.78;;;3.88;90.24
30618;BME280;17384;51.214;9.202;2023-02-13T06:27:41;100781.19;;;3.89;90.96
30618;BME280;17384;51.214;9.202;2023-02-13T06:30:07;100781.31;;;3.99;90.12
30618;BME280;17384;51.214;9.202;2023-02-13T06:32:33;100781.03;;;4.13;89.66
30618;BME280;17384;51.214;9.202;2023-02-13T06:34:58;100783.69;;;4.13;89.49
30618;BME280;17384;51.214;9.202;2023-02-13T06:37:24;100781.06;;;4.02;89.60
30618;BME280;17384;51.214;9.202;2023-02-13T06:39:49;100787.16;;;3.93;89.88
30618;BME280;17384;51.214;9.202;2023-02-13T06:42:15;100787.78;;;4.07;89.88
30618;BME280;17384;51.214;9.202;2023-02-13T06:44:40;100784.00;;;3.99;89.86
30618;BME280;17384;51.214;9.202;2023-02-13T06:47:05;100792.13;;;4.20;89.23
30618;BME280;17384;51.214;9.202;2023-02-13T06:49:31;100806.34;;;3.99;89.58
30618;BME280;17384;51.214;9.202;2023-02-13T06:51:56;100801.81;;;4.00;90.11
30618;BME280;17384;51.214;9.202;2023-02-13T06:54:22;100805.22;;;3.91;90.27
30618;BME280;17384;51.214;9.202;2023-02-13T06:56:47;100802.31;;;3.94;90.49
30618;BME280;17384;51.214;9.202;2023-02-13T06:59:12;100805.72;;;3.96;90.16
30618;BME280;17384;51.214;9.202;2023-02-13T07:01:38;100802.91;;;3.86;90.67
30618;BME280;17384;51.214;9.202;2023-02-13T07:04:03;100797.78;;;4.05;89.92
30618;BME280;17384;51.214;9.202;2023-02-13T07:06:29;100807.56;;;3.95;89.90
30618;BME280;17384;51.214;9.202;2023-02-13T07:08:54;100800.22;;;3.86;90.38
30618;BME280;17384;51.214;9.202;2023-02-13T07:11:22;100814.50;;;3.87;90.17
30618;BME280;17384;51.214;9.202;2023-02-13T07:13:48;100816.22;;;3.88;90.39
30618;BME280;17384;51.214;9.202;2023-02-13T07:16:14;100824.78;;;3.82;90.31
30618;BME280;17384;51.214;9.202;2023-02-13T07:18:39;100814.75;;;3.84;90.52
30618;BME280;17384;51.214;9.202;2023-02-13T07:21:06;100828.41;;;3.92;90.48
30618;BME280;17384;51.214;9.202;2023-02-13T07:23:31;100829.75;;;3.97;89.91
30618;BME280;17384;51.214;9.202;2023-02-13T07:26:00;100824.28;;;3.99;89.43
30618;BME280;17384;51.214;9.202;2023-02-13T07:28:27;100825.50;;;3.95;89.38
30618;BME280;17384;51.214;9.202;2023-02-13T07:30:53;100825.84;;;4.01;89.36
30618;BME280;17384;51.214;9.202;2023-02-13T07:33:19;100820.72;;;3.98;89.16
30618;BME280;17384;51.214;9.202;2023-02-13T07:35:51;100826.72;;;4.02;89.25
30618;BME280;17384;51.214;9.202;2023-02-13T07:38:17;100825.38;;;4.07;88.93
30618;BME280;17384;51.214;9.202;2023-02-13T07:40:44;100819.09;;;4.18;88.21
30618;BME280;17384;51.214;9.202;2023-02-13T07:43:09;100837.53;;;4.23;88.16
30618;BME280;17384;51.214;9.202;2023-02-13T07:45:35;100834.66;;;4.03;88.11
30618;BME280;17384;51.214;9.202;2023-02-13T07:48:00;100839.28;;;4.01;88.30
30618;BME280;17384;51.214;9.202;2023-02-13T07:50:26;100834.28;;;3.97;89.20
30618;BME280;17384;51.214;9.202;2023-02-13T07:53:00;100834.91;;;4.00;88.81
30618;BME280;17384;51.214;9.202;2023-02-13T07:55:28;100823.28;;;4.00;88.86
30618;BME280;17384;51.214;9.202;2023-02-13T07:57:54;100837.09;;;4.06;88.88
30618;BME280;17384;51.214;9.202;2023-02-13T08:00:21;100838.19;;;4.04;88.76
30618;BME280;17384;51.214;9.202;2023-02-13T08:02:47;100839.13;;;4.14;88.15
30618;BME280;17384;51.214;9.202;2023-02-13T08:05:13;100836.69;;;4.33;87.73
30618;BME280;17384;51.214;9.202;2023-02-13T08:07:38;100839.97;;;4.37;87.50
30618;BME280;17384;51.214;9.202;2023-02-13T08:10:07;100844.25;;;4.28;87.47
30618;BME280;17384;51.214;9.202;2023-02-13T08:12:52;100831.19;;;4.24;88.04
30618;BME280;17384;51.214;9.202;2023-02-13T08:15:18;100842.66;;;4.37;87.78
30618;BME280;17384;51.214;9.202;2023-02-13T08:17:44;100832.22;;;4.43;87.62
30618;BME280;17384;51.214;9.202;2023-02-13T08:20:09;100830.59;;;4.63;86.57
30618;BME280;17384;51.214;9.202;2023-02-13T08:22:36;100833.00;;;4.66;85.84
30618;BME280;17384;51.214;9.202;2023-02-13T08:25:03;100836.47;;;4.57;86.49
30618;BME280;17384;51.214;9.202;2023-02-13T08:27:29;100834.84;;;4.66;86.51
30618;BME280;17384;51.214;9.202;2023-02-13T08:29:55;100829.47;;;4.66;86.58
30618;BME280;17384;51.214;9.202;2023-02-13T08:32:22;100821.63;;;4.74;86.57
30618;BME280;17384;51.214;9.202;2023-02-13T08:34:48;100833.88;;;4.67;85.65
30618;BME280;17384;51.214;9.202;2023-02-13T08:37:13;100819.91;;;4.73;85.49
30618;BME280;17384;51.214;9.202;2023-02-13T08:39:39;100830.13;;;4.90;85.03
30618;BME280;17384;51.214;9.202;2023-02-13T08:42:04;100819.53;;;4.98;84.27
30618;BME280;17384;51.214;9.202;2023-02-13T08:44:30;100830.38;;;5.08;83.85
30618;BME280;17384;51.214;9.202;2023-02-13T08:46:55;100834.06;;;5.07;84.50
30618;BME280;17384;51.214;9.202;2023-02-13T08:49:21;100833.81;;;5.10;84.00
30618;BME280;17384;51.214;9.202;2023-02-13T08:51:48;100826.56;;;5.31;84.22
30618;BME280;17384;51.214;9.202;2023-02-13T08:54:13;100834.47;;;5.44;83.47
30618;BME280;17384;51.214;9.202;2023-02-13T08:56:40;100835.53;;;5.62;80.44
30618;BME280;17384;51.214;9.202;2023-02-13T08:59:06;100848.38;;;5.79;81.12
30618;BME280;17384;51.214;9.202;2023-02-13T09:01:31;100836.88;;;5.98;80.28
30618;BME280;17384;51.214;9.202;2023-02-13T09:03:57;100835.63;;;6.12;78.94
30618;BME280;17384;51.214;9.202;2023-02-13T09:06:22;100832.84;;;6.33;78.20
30618;BME280;17384;51.214;9.202;2023-02-13T09:08:50;100841.03;;;6.81;77.35
30618;BME280;17384;51.214;9.202;2023-02-13T09:11:16;100827.38;;;6.54;75.85
30618;BME280;17384;51.214;9.202;2023-02-13T09:13:41;100838.22;;;6.33;76.97
30618;BME280;17384;51.214;9.202;2023-02-13T09:16:07;100839.09;;;6.33;77.05
30618;BME280;17384;51.214;9.202;2023-02-13T09:18:33;100842.06;;;6.30;77.46
30618;BME280;17384;51.214;9.202;2023-02-13T09:21:01;100842.91;;;6.21;77.43
30618;BME280;17384;51.214;9.202;2023-02-13T09:23:30;100840.56;;;6.07;78.10
30618;BME280;17384;51.214;9.202;2023-02-13T09:26:01;100840.03;;;5.83;78.88
30618;BME280;17384;51.214;9.202;2023-02-13T09:28:28;100826.50;;;6.43;77.46
30618;BME280;17384;51.214;9.202;2023-02-13T09:30:54;100842.25;;;7.16;75.64
30618;BME280;17384;51.214;9.202;2023-02-13T09:33:19;100837.28;;;7.21;74.36
30618;BME280;17384;51.214;9.202;2023-02-13T09:35:45;100841.22;;;7.45;74.55
30618;BME280;17384;51.214;9.202;2023-02-13T09:38:10;100837.53;;;7.46;73.25
30618;BME280;17384;51.214;9.202;2023-02-13T09:40:51;100841.84;;;7.20;74.03
30618;BME280;17384;51.214;9.202;2023-02-13T09:43:30;100840.56;;;6.95;74.79
30618;BME280;17384;51.214;9.202;2023-02-13T09:46:03;100844.72;;;7.09;74.93
30618;BME280;17384;51.214;9.202;2023-02-13T09:48:35;100844.34;;;7.41;74.37
30618;BME280;17384;51.214;9.202;2023-02-13T09:51:03;100849.47;;;7.44;73.74
30618;BME280;17384;51.214;9.202;2023-02-13T09:53:29;100852.38;;;7.70;73.02
30618;BME280;17384;51.214;9.202;2023-02-13T09:56:04;100841.56;;;8.17;71.86
30618;BME280;17384;51.214;9.202;2023-02-13T09:58:48;100837.38;;;8.22;70.80
30618;BME280;17384;51.214;9.202;2023-02-13T10:06:44;100847.69;;;8.81;69.28
30618;BME280;17384;51.214;9.202;2023-02-13T10:09:28;100842.28;;;8.64;69.36
30618;BME280;17384;51.214;9.202;2023-02-13T10:17:27;100826.97;;;8.27;70.08
30618;BME280;17384;51.214;9.202;2023-02-13T10:19:58;100829.66;;;8.37;69.83
30618;BME280;17384;51.214;9.202;2023-02-13T10:22:43;100828.06;;;8.44;70.69
30618;BME280;17384;51.214;9.202;2023-02-13T10:25:24;100825.06;;;8.65;69.67
30618;BME280;17384;51.214;9.202;2023-02-13T10:28:00;100837.78;;;9.26;69.10
30618;BME280;17384;51.214;9.202;2023-02-13T10:30:34;100837.50;;;8.93;68.59
30618;BME280;17384;51.214;9.202;2023-02-13T10:35:55;100824.19;;;9.95;65.47
30618;BME280;17384;51.214;9.202;2023-02-13T10:38:23;100820.63;;;10.29;64.30
30618;BME280;17384;51.214;9.202;2023-02-13T10:54:53;100824.81;;;10.98;61.31
30618;BME280;17384;51.214;9.202;2023-02-13T10:57:47;100821.25;;;10.97;61.83
30618;BME280;17384;51.214;9.202;2023-02-13T11:03:02;100801.06;;;10.83;60.59
30618;BME280;17384;51.214;9.202;2023-02-13T11:05:36;100792.88;;;11.57;61.00
30618;BME280;17384;51.214;9.202;2023-02-13T11:08:02;100799.59;;;11.93;58.54
30618;BME280;17384;51.214;9.202;2023-02-13T11:10:28;100803.38;;;11.76;58.42
30618;BME280;17384;51.214;9.202;2023-02-13T11:12:54;100791.63;;;11.83;58.14
30618;BME280;17384;51.214;9.202;2023-02-13T11:15:28;100787.84;;;12.01;58.23
30618;BME280;17384;51.214;9.202;2023-02-13T11:17:58;100791.00;;;12.20;57.52
30618;BME280;17384;51.214;9.202;2023-02-13T11:20:29;100792.22;;;12.10;57.50
30618;BME280;17384;51.214;9.202;2023-02-13T11:25:39;100793.06;;;12.72;55.70
30618;BME280;17384;51.214;9.202;2023-02-13T11:28:17;100785.94;;;12.40;56.87
30618;BME280;17384;51.214;9.202;2023-02-13T11:30:45;100778.72;;;12.78;55.71
30618;BME280;17384;51.214;9.202;2023-02-13T11:35:43;100781.25;;;13.26;55.20
30618;BME280;17384;51.214;9.202;2023-02-13T11:40:34;100784.81;;;14.59;51.01
30618;BME280;17384;51.214;9.202;2023-02-13T11:43:01;100775.97;;;14.56;51.12
30618;BME280;17384;51.214;9.202;2023-02-13T11:45:27;100777.84;;;14.05;52.25
30618;BME280;17384;51.214;9.202;2023-02-13T11:47:55;100773.81;;;14.37;50.15
30618;BME280;17384;51.214;9.202;2023-02-13T11:50:30;100769.03;;;14.39;50.25
30618;BME280;17384;51.214;9.202;2023-02-13T11:53:13;100773.41;;;14.19;50.37
30618;BME280;17384;51.214;9.202;2023-02-13T11:55:42;100757.78;;;13.98;51.78
30618;BME280;17384;51.214;9.202;2023-02-13T12:00:38;100755.50;;;14.67;48.58
30618;BME280;17384;51.214;9.202;2023-02-13T12:03:25;100751.91;;;14.45;49.50
30618;BME280;17384;51.214;9.202;2023-02-13T12:06:12;100744.06;;;13.92;51.88
30618;BME280;17384;51.214;9.202;2023-02-13T12:08:39;100748.94;;;13.96;52.06
30618;BME280;17384;51.214;9.202;2023-02-13T12:11:25;100749.97;;;13.95;52.88
30618;BME280;17384;51.214;9.202;2023-02-13T12:13:54;100738.41;;;14.08;51.68
30618;BME280;17384;51.214;9.202;2023-02-13T12:16:34;100732.16;;;13.63;52.62
30618;BME280;17384;51.214;9.202;2023-02-13T12:19:06;100728.81;;;13.68;52.27
30618;BME280;17384;51.214;9.202;2023-02-13T12:22:00;100734.38;;;13.89;51.71
30618;BME280;17384;51.214;9.202;2023-02-13T12:24:48;100740.47;;;14.06;50.81
30618;BME280;17384;51.214;9.202;2023-02-13T12:32:41;100727.41;;;13.42;52.78
30618;BME280;17384;51.214;9.202;2023-02-13T12:35:30;100723.38;;;14.33;50.49
30618;BME280;17384;51.214;9.202;2023-02-13T12:52:07;100697.72;;;14.13;49.94
30618;BME280;17384;51.214;9.202;2023-02-13T13:00:04;100688.16;;;14.81;49.89
30618;BME280;17384;51.214;9.202;2023-02-13T13:08:17;100675.88;;;13.47;52.57
30618;BME280;17384;51.214;9.202;2023-02-13T13:10:49;100672.34;;;12.95;54.09
30618;BME280;17384;51.214;9.202;2023-02-13T13:13:31;100684.81;;;13.41;53.92
30618;BME280;17384;51.214;9.202;2023-02-13T13:26:50;100678.25;;;14.16;51.79
30618;BME280;17384;51.214;9.202;2023-02-13T13:29:21;100677.56;;;13.93;53.24
30618;BME280;17384;51.214;9.202;2023-02-13T13:32:10;100667.50;;;13.78;52.56
30618;BME280;17384;51.214;9.202;2023-02-13T13:34:38;100669.41;;;13.48;53.25
30618;BME280;17384;51.214;9.202;2023-02-13T13:37:36;100672.97;;;13.49;53.79
30618;BME280;17384;51.214;9.202;2023-02-13T13:43:12;100666.75;;;13.84;53.28
30618;BME280;17384;51.214;9.202;2023-02-13T13:45:49;100668.00;;;13.67;52.87
30618;BME280;17384;51.214;9.202;2023-02-13T13:50:50;100665.47;;;13.51;54.09
30618;BME280;17384;51.214;9.202;2023-02-13T13:53:18;100658.19;;;13.87;52.24
30618;BME280;17384;51.214;9.202;2023-02-13T14:01:22;100661.47;;;13.83;52.33
30618;BME280;17384;51.214;9.202;2023-02-13T14:03:52;100651.41;;;13.69;53.58
30618;BME280;17384;51.214;9.202;2023-02-13T14:06:24;100654.59;;;13.87;53.31
30618;BME280;17384;51.214;9.202;2023-02-13T14:08:57;100661.97;;;13.57;53.72
30618;BME280;17384;51.214;9.202;2023-02-13T14:14:01;100646.38;;;14.02;52.57
30618;BME280;17384;51.214;9.202;2023-02-13T14:16:45;100651.25;;;14.92;49.89
30618;BME280;17384;51.214;9.202;2023-02-13T14:19:32;100653.13;;;15.19;48.84
30618;BME280;17384;51.214;9.202;2023-02-13T14:24:59;100654.53;;;15.43;48.37
30618;BME280;17384;51.214;9.202;2023-02-13T14:27:32;100653.28;;;15.80;47.33
30618;BME280;17384;51.214;9.202;2023-02-13T14:29:59;100649.66;;;16.34;45.75
30618;BME280;17384;51.214;9.202;2023-02-13T14:32:35;100651.81;;;16.71;44.73
30618;BME280;17384;51.214;9.202;2023-02-13T14:37:53;100630.06;;;16.37;44.79
30618;BME280;17384;51.214;9.202;2023-02-13T14:45:52;100641.47;;;17.13;43.99
30618;BME280;17384;51.214;9.202;2023-02-13T14:48:21;100628.88;;;15.91;45.64
30618;BME280;17384;51.214;9.202;2023-02-13T14:50:51;100635.00;;;15.94;45.79
30618;BME280;17384;51.214;9.202;2023-02-13T14:53:22;100636.44;;;16.70;44.41
30618;BME280;17384;51.214;9.202;2023-02-13T14:55:54;100645.88;;;16.35;44.29
30618;BME280;17384;51.214;9.202;2023-02-13T14:58:30;100637.00;;;16.33;44.29
30618;BME280;17384;51.214;9.202;2023-02-13T15:01:24;100636.13;;;16.06;45.42
30618;BME280;17384;51.214;9.202;2023-02-13T15:03:58;100627.44;;;15.96;45.60
30618;BME280;17384;51.214;9.202;2023-02-13T15:06:30;100624.25;;;15.85;46.41
30618;BME280;17384;51.214;9.202;2023-02-13T15:09:02;100627.91;;;16.19;45.71
30618;BME280;17384;51.214;9.202;2023-02-13T15:11:38;100626.75;;;16.94;44.07
30618;BME280;17384;51.214;9.202;2023-02-13T15:17:29;100619.38;;;16.95;43.73
30618;BME280;17384;51.214;9.202;2023-02-13T15:20:06;100623.97;;;16.54;43.93
30618;BME280;17384;51.214;9.202;2023-02-13T15:22:40;100627.13;;;16.38;44.59
30618;BME280;17384;51.214;9.202;2023-02-13T15:25:07;100623.78;;;16.63;44.89
30618;BME280;17384;51.214;9.202;2023-02-13T15:27:40;100618.09;;;16.77;43.96
30618;BME280;17384;51.214;9.202;2023-02-13T15:30:25;100617.91;;;15.78;46.13
30618;BME280;17384;51.214;9.202;2023-02-13T15:32:58;100623.97;;;16.48;44.73
30618;BME280;17384;51.214;9.202;2023-02-13T15:35:32;100616.69;;;15.12;47.47
30618;BME280;17384;51.214;9.202;2023-02-13T15:37:59;100609.59;;;16.26;45.32
30618;BME280;17384;51.214;9.202;2023-02-13T15:40:27;100615.69;;;16.15;45.55
30618;BME280;17384;51.214;9.202;2023-02-13T15:42:54;100613.81;;;16.42;45.24
30618;BME280;17384;51.214;9.202;2023-02-13T15:45:21;100618.97;;;15.43;46.53
30618;BME280;17384;51.214;9.202;2023-02-13T15:47:48;100612.72;;;15.49;46.59
30618;BME280;17384;51.214;9.202;2023-02-13T15:52:49;100624.06;;;15.11;47.36
30618;BME280;17384;51.214;9.202;2023-02-13T15:55:24;100622.22;;;14.20;49.39